Richland, Oregon
Current Conditions -  °F | °C
As of 5:53 AM on Monday 24 Nov 2014 (Local Time) from KBKE Reporting Station
Clear Clear  
Wind Chill: 24°   Ceiling: Unl
Heat Index: 24°   Visibility: 10mi
Dew Point: 21°   Wind: 3mph
Humidity: 88%   Direction: 160°SSE
Pressure: 30.36"   Gusts: NA
Location:  44.77°N, 117.17°W
Report Text: KBKE 241353Z AUTO 16003KT 10SM CLR M04/M06 A3036 RMK AO2 SLP309 T10441061
Loading
Personal Weather Stations






























Interactive Weather Map New forecast layout! Learn more

10-Day Weather Forecast

Advertisements
Track Severe Weather on mobile